Flight Track Log - Related Links

Times and Time Zones

All times are in EDT time to prevent confusion due to time zone crossing. See the N6ZQ flight status page for this flight to view local times or setup timezone preferences in your user account.

Time Position Orientation Groundspeed Altitude Reporting Facility
EDT Latitude Longitude Course Direction KTS MPH feet Rate Location/Type
Fri 10:34:55 AM 43.4242 -86.7906 116° Southeast 206 237 17,500  Level Chicago Center
Fri 10:35:57 AM 43.3989 -86.7178 116° Southeast 208 239 17,500  Level Chicago Center
Fri 10:36:59 AM 43.3747 -86.6453 115° Southeast 208 239 17,500  Level Chicago Center
Fri 10:38:01 AM 43.3506 -86.5725 115° Southeast 208 239 17,500 -48 Level Chicago Center
Fri 10:39:03 AM 43.3250 -86.4983 115° Southeast 211 243 17,400 -48 Descending Chicago Center
Fri 10:40:05 AM 43.2958 -86.4119 115° Southeast 211 243 17,400  Level Chicago Center
Fri 10:41:07 AM 43.2714 -86.3381 114° Southeast 211 243 17,400  Level Chicago Center
Fri 10:42:10 AM 43.2461 -86.2658 116° Southeast 211 243 17,400  Level Chicago Center
Fri 10:43:12 AM 43.2225 -86.1942 114° Southeast 210 242 17,400 -84 Level Chicago Center
Fri 10:45:44 AM 43.1547 -86.0039 115° Southeast 212 244 17,100 -84 Descending Cleveland Center
Fri 10:46:46 AM 43.1183 -85.9314 124° Southeast 220 253 17,100 -48 Level Cleveland Center
Fri 10:47:48 AM 43.0861 -85.8636 123° Southeast 217 250 17,000 -48 Descending Cleveland Center
Fri 10:48:50 AM 43.0517 -85.7944 124° Southeast 216 249 17,000  Level Cleveland Center
Fri 10:49:53 AM 43.0194 -85.7275 123° Southeast 214 246 17,000  Level Cleveland Center
Fri 10:50:55 AM 42.9864 -85.6594 124° Southeast 214 246 17,000  Level Cleveland Center
Fri 10:51:57 AM 42.9536 -85.5925 124° Southeast 213 245 17,000  Level Cleveland Center
Fri 10:52:59 AM 42.9144 -85.5131 124° Southeast 212 244 17,000  Level Cleveland Center
Fri 10:54:01 AM 42.8819 -85.4464 124° Southeast 212 244 17,000  Level Cleveland Center
Fri 10:55:03 AM 42.8494 -85.3817 124° Southeast 210 242 17,000  Level Cleveland Center
Fri 10:56:05 AM 42.8183 -85.3164 123° Southeast 209 241 17,000  Level Cleveland Center
Fri 10:57:07 AM 42.7864 -85.2514 124° Southeast 209 241 17,000  Level Cleveland Center
Fri 10:58:09 AM 42.7539 -85.1858 124° Southeast 208 239 17,000 -45 Level Cleveland Center
Fri 10:59:21 AM 42.7158 -85.1089 124° Southeast 206 237 16,900 -45 Descending Chicago Center
Fri 11:00:23 AM 42.6783 -85.0314 123° Southeast 206 237 16,900  Level Chicago Center
Fri 11:01:25 AM 42.6456 -84.9683 125° Southeast 206 237 16,900 52 Level Chicago Center
Fri 11:02:18 AM 42.6203 -84.9164 123° Southeast 206 237 17,000 52 Climbing Cleveland Center
Fri 11:03:20 AM 42.5878 -84.8519 124° Southeast 206 237 17,000  Level Cleveland Center
Fri 11:04:22 AM 42.5556 -84.7869 124° Southeast 206 237 17,000  Level Cleveland Center
Fri 11:05:24 AM 42.5164 -84.7089 124° Southeast 208 239 17,000  Level Cleveland Center
Fri 11:06:26 AM 42.4872 -84.6519 125° Southeast 208 239 17,000  Level Cleveland Center
Fri 11:07:28 AM 42.4486 -84.5742 124° Southeast 209 241 17,000  Level Cleveland Center
Fri 11:08:30 AM 42.4150 -84.5097 125° Southeast 210 242 17,000  Level Cleveland Center
Fri 11:09:32 AM 42.3825 -84.4450 124° Southeast 209 241 17,000  Level Cleveland Center
Fri 11:10:34 AM 42.3492 -84.3800 125° Southeast 209 241 17,000  Level Cleveland Center
Fri 11:11:36 AM 42.3167 -84.3161 125° Southeast 209 241 17,000  Level Cleveland Center
Fri 11:12:38 AM 42.2772 -84.2389 125° Southeast 209 241 17,000  Level Cleveland Center
Fri 11:13:41 AM 42.2453 -84.1750 124° Southeast 209 241 17,000  Level Cleveland Center
Fri 11:14:43 AM 42.2122 -84.1114 125° Southeast 209 241 17,000  Level Cleveland Center
Fri 11:15:45 AM 42.1792 -84.0478 125° Southeast 208 239 17,000  Level Cleveland Center
Fri 11:16:47 AM 42.1464 -83.9836 125° Southeast 208 239 17,000 48 Level Cleveland Center
Fri 11:17:49 AM 42.1058 -83.9058 125° Southeast 211 243 17,100  Climbing Cleveland Center
Fri 11:18:51 AM 42.0722 -83.8417 125° Southeast 211 243 17,000 -48 Descending Cleveland Center
Fri 11:19:53 AM 42.0400 -83.7769 124° Southeast 211 243 17,000  Level Cleveland Center
Fri 11:20:55 AM 42.0064 -83.7117 125° Southeast 211 243 17,000  Level Cleveland Center
Fri 11:21:58 AM 41.9717 -83.6469 126° Southeast 212 244 17,000  Level Cleveland Center
Fri 11:23:00 AM 41.9322 -83.5683 124° Southeast 213 245 17,000  Level Cleveland Center
Fri 11:24:02 AM 41.8972 -83.5044 126° Southeast 213 245 17,000  Level Cleveland Center
Fri 11:25:04 AM 41.8644 -83.4386 124° Southeast 213 245 17,000  Level Cleveland Center
Fri 11:26:06 AM 41.8303 -83.3739 125° Southeast 213 245 17,000  Level Cleveland Center
Fri 11:27:08 AM 41.7956 -83.3100 126° Southeast 213 245 17,000  Level Cleveland Center
Fri 11:28:10 AM 41.7617 -83.2450 125° Southeast 214 246 17,000  Level Cleveland Center
Fri 11:29:12 AM 41.7211 -83.1678 125° Southeast 213 245 17,000  Level Cleveland Center
Fri 11:30:14 AM 41.6872 -83.1039 125° Southeast 213 245 17,000  Level Cleveland Center
Fri 11:31:17 AM 41.6531 -83.0389 125° Southeast 213 245 17,000  Level Cleveland Center
Fri 11:32:19 AM 41.6167 -82.9722 126° Southeast 213 245 17,000  Level Cleveland Center
Fri 11:33:21 AM 41.5836 -82.9075 124° Southeast 212 244 17,000  Level Cleveland Center
Fri 11:34:23 AM 41.5489 -82.8436 126° Southeast 212 244 17,000  Level Cleveland Center
Fri 11:35:25 AM 41.5142 -82.7789 126° Southeast 212 244 17,000  Level Cleveland Center
Fri 11:36:27 AM 41.4744 -82.7056 126° Southeast 212 244 17,000  Level Cleveland Center
Fri 11:37:29 AM 41.4400 -82.6414 126° Southeast 211 243 17,000  Level Cleveland Center
Fri 11:38:31 AM 41.4064 -82.5786 126° Southeast 211 243 17,000  Level Cleveland Center
Fri 11:39:34 AM 41.3731 -82.5153 125° Southeast 210 242 17,000  Level Cleveland Center
Fri 11:40:36 AM 41.3383 -82.4519 126° Southeast 210 242 17,000  Level Cleveland Center
Fri 11:41:38 AM 41.3042 -82.3903 126° Southeast 208 239 17,000  Level Cleveland Center
Fri 11:42:40 AM 41.2650 -82.3175 126° Southeast 208 239 17,000  Level Cleveland Center
Fri 11:43:42 AM 41.2311 -82.2567 127° Southeast 207 238 17,000  Level Cleveland Center
Fri 11:44:44 AM 41.1972 -82.1933 125° Southeast 207 238 17,000  Level Cleveland Center
Fri 11:45:46 AM 41.1642 -82.1317 125° Southeast 207 238 17,000  Level Cleveland Center
Fri 11:46:49 AM 41.1294 -82.0717 128° Southeast 207 238 17,000  Level Cleveland Center
Fri 11:47:51 AM 41.0953 -82.0078 125° Southeast 207 238 17,000  Level Cleveland Center
Fri 11:48:53 AM 41.0544 -81.9350 127° Southeast 208 239 17,000  Level Cleveland Center
Fri 11:49:55 AM 41.0194 -81.8708 126° Southeast 211 243 17,000  Level Cleveland Center
Fri 11:50:57 AM 40.9844 -81.8064 126° Southeast 212 244 17,000  Level Cleveland Center
Fri 11:51:59 AM 40.9492 -81.7425 126° Southeast 212 244 17,000  Level Cleveland Center
Fri 11:53:01 AM 40.9136 -81.6786 126° Southeast 213 245 17,000  Level Cleveland Center
Fri 11:54:03 AM 40.8783 -81.6156 126° Southeast 213 245 17,000  Level Cleveland Center
Fri 11:55:05 AM 40.8364 -81.5411 127° Southeast 214 246 17,000  Level Cleveland Center
Fri 11:56:08 AM 40.8014 -81.4772 126° Southeast 214 246 17,000  Level Cleveland Center
Fri 11:57:10 AM 40.7656 -81.4133 127° Southeast 214 246 17,000  Level Cleveland Center
Fri 11:58:12 AM 40.7306 -81.3506 126° Southeast 214 246 17,000  Level Cleveland Center
Fri 11:59:14 AM 40.6942 -81.2872 127° Southeast 214 246 17,000  Level Cleveland Center
Fri 12:00:16 PM 40.6592 -81.2242 126° Southeast 214 246 17,000  Level Cleveland Center
Fri 12:01:18 PM 40.6183 -81.1514 126° Southeast 212 244 17,000  Level Cleveland Center
Fri 12:02:20 PM 40.5906 -81.0836 118° Southeast 213 245 17,000  Level Cleveland Center
Fri 12:03:22 PM 40.5628 -81.0153 118° Southeast 213 245 17,000  Level Cleveland Center
Fri 12:04:25 PM 40.5317 -80.9486 122° Southeast 213 245 17,000  Level Cleveland Center
Fri 12:05:27 PM 40.4956 -80.8886 128° Southeast 213 245 17,000  Level Cleveland Center
Fri 12:06:29 PM 40.4528 -80.8158 128° Southeast 212 244 17,000  Level Cleveland Center
Fri 12:07:31 PM 40.4183 -80.7544 126° Southeast 211 243 17,000  Level Cleveland Center
Fri 12:08:33 PM 40.3831 -80.6942 128° Southeast 211 243 17,000  Level Cleveland Center
Fri 12:09:35 PM 40.3483 -80.6344 127° Southeast 210 242 17,000  Level Cleveland Center
Fri 12:10:37 PM 40.3131 -80.5742 127° Southeast 210 242 17,000  Level Cleveland Center
Fri 12:11:39 PM 40.2711 -80.5028 128° Southeast 210 242 17,000  Level Cleveland Center
Fri 12:12:41 PM 40.2367 -80.4439 127° Southeast 207 238 17,000  Level Cleveland Center
Fri 12:13:43 PM 40.2019 -80.3850 128° Southeast 207 238 17,000  Level Cleveland Center
Fri 12:14:46 PM 40.1678 -80.3264 127° Southeast 207 238 17,000  Level Cleveland Center
Fri 12:15:48 PM 40.1339 -80.2675 127° Southeast 207 238 17,000  Level Cleveland Center
Fri 12:16:50 PM 40.0914 -80.1981 129° Southeast 206 237 17,000  Level Cleveland Center
Fri 12:17:52 PM 40.0572 -80.1397 127° Southeast 206 237 17,000  Level Cleveland Center
Fri 12:18:54 PM 40.0228 -80.0806 127° Southeast 206 237 17,000  Level Cleveland Center
Fri 12:19:56 PM 39.9875 -80.0225 128° Southeast 206 237 17,000  Level Cleveland Center
Fri 12:20:58 PM 39.9525 -79.9644 128° Southeast 205 236 17,000  Level Cleveland Center
Fri 12:22:00 PM 39.9111 -79.8933 127° Southeast 205 236 17,000  Level Cleveland Center
Fri 12:23:02 PM 39.8750 -79.8353 129° Southeast 205 236 17,000  Level Cleveland Center
Fri 12:24:04 PM 39.8414 -79.7756 126° Southeast 205 236 17,000  Level Cleveland Center
Fri 12:25:07 PM 39.8047 -79.7167 129° Southeast 208 239 17,000  Level Cleveland Center
Fri 12:26:09 PM 39.7700 -79.6578 127° Southeast 208 239 17,000  Level Cleveland Center
Fri 12:27:11 PM 39.7344 -79.5997 129° Southeast 207 238 17,000  Level Cleveland Center
Fri 12:28:13 PM 39.6928 -79.5297 128° Southeast 206 237 17,000  Level Cleveland Center
Fri 12:29:15 PM 39.6583 -79.4719 128° Southeast 203 234 17,000  Level Cleveland Center
Fri 12:30:17 PM 39.6225 -79.4153 129° Southeast 203 234 17,000  Level Cleveland Center
Fri 12:31:19 PM 39.5881 -79.3578 128° Southeast 203 234 17,000 -48 Level Cleveland Center
Fri 12:32:21 PM 39.5531 -79.3008 129° Southeast 203 234 16,900 -48 Descending Cleveland Center
Fri 12:33:23 PM 39.5183 -79.2431 128° Southeast 203 234 16,900  Level Cleveland Center
Fri 12:34:25 PM 39.4775 -79.1761 128° Southeast 202 232 16,900  Level Cleveland Center
Fri 12:35:28 PM 39.4433 -79.1200 128° Southeast 200 230 16,900  Level Cleveland Center
Fri 12:36:30 PM 39.4089 -79.0644 129° Southeast 200 230 16,900  Level Cleveland Center
Fri 12:37:32 PM 39.3758 -79.0092 128° Southeast 199 229 16,900 -145 Level Cleveland Center
Fri 12:38:34 PM 39.3364 -78.9431 128° Southeast 198 228 16,600 -823 Descending Cleveland Center
Fri 12:39:36 PM 39.2953 -78.8778 129° Southeast 233 268 15,200 -1,306 Descending Cleveland Center
Fri 12:40:38 PM 39.2533 -78.8100 129° Southeast 243 280 13,900 -1,065 Descending Cleveland Center
Fri 12:41:40 PM 39.2153 -78.7472 128° Southeast 224 258 13,000 -774 Descending Cleveland Center
Fri 12:42:42 PM 39.1761 -78.6856 129° Southeast 223 257 12,300 -629 Descending Cleveland Center
Fri 12:43:44 PM 39.1389 -78.6256 129° Southeast 218 251 11,700 -586 Descending Cleveland Center
Fri 12:44:55 PM 39.0936 -78.5550 130° Southeast 217 250 11,000 -591 Descending Washington Center
Fri 12:45:56 PM 39.0575 -78.4972 129° Southeast 211 243 10,400 -545 Descending Washington Center
Fri 12:46:56 PM 39.0214 -78.4397 129° Southeast 211 243 9,900 -508 Descending Washington Center
Fri 12:47:54 PM 38.9872 -78.3850 129° Southeast 211 243 9,400 -403 Descending Washington Center
Fri 12:48:55 PM 38.9553 -78.3331 128° Southeast 205 236 9,100 -198 Descending Washington Center
Fri 12:49:55 PM 38.9208 -78.2811 130° Southeast 200 230 9,000 -298 Descending Washington Center
Fri 12:50:56 PM 38.8886 -78.2292 129° Southeast 195 224 8,500 -514 Descending Washington Center
Fri 12:53:25 PM 38.8000 -78.1000 131° Southeast 189 217 7,200 -431 Descending Potomac TRACON
Fri 12:54:25 PM 38.7667 -78.0500 131° Southeast 180 207 7,000 -100 Descending Potomac TRACON
Fri 12:55:25 PM 38.7333 -78.0167 142° Southeast 168 193 7,000  Level Potomac TRACON
Fri 12:56:25 PM 38.7000 -77.9667 130° Southeast 165 190 7,000 -250 Level Potomac TRACON
Fri 12:57:25 PM 38.6833 -77.9167 113° Southeast 177 204 6,500 -550 Descending Potomac TRACON
Fri 12:58:25 PM 38.6500 -77.8667 130° Southeast 186 214 5,900 -579 Descending Potomac TRACON
Fri 12:59:19 PM 38.6167 -77.8167 130° Southeast 189 217 5,400 -600 Descending Potomac TRACON
Fri 01:00:25 PM 38.5833 -77.7500 123° Southeast 194 223 4,700 -619 Descending Potomac TRACON
Fri 01:01:25 PM 38.5500 -77.7000 130° Southeast 194 223 4,100 -368 Descending Potomac TRACON
Fri 01:02:19 PM 38.5167 -77.6500 130° Southeast 182 209 4,000 -167 Descending Potomac TRACON
Fri 01:03:13 PM 38.4833 -77.6000 130° Southeast 173 199 3,800 -421 Descending Potomac TRACON
Fri 01:04:13 PM 38.4667 -77.5500 113° Southeast 179 206 3,200 -600 Descending Potomac TRACON
Fri 01:05:13 PM 38.4333 -77.5167 142° Southeast 165 190 2,600 -900 Descending Potomac TRACON
Fri 01:06:13 PM 38.3833 -77.4833 152° Southeast 174 200 1,400 -762 Descending Potomac TRACON
Fri 01:07:19 PM 38.3500 -77.4500 142° Southeast 171 197 1,000 -250 Descending Potomac TRACON
Fri 01:08:13 PM 38.3500 -77.4167 90° East 143 165 900 -111 Descending Potomac TRACON

Login

Don't have an account? Register now (free) for customized features, flight alerts, and more!